createdAt,value
2022-08-17T00:02:25.283Z,16.63
2022-08-17T00:04:55.351Z,16.60
2022-08-17T00:07:22.641Z,16.47
2022-08-17T00:09:49.374Z,16.43
2022-08-17T00:12:42.620Z,16.39
2022-08-17T00:15:04.101Z,16.67
2022-08-17T00:17:30.874Z,16.43
2022-08-17T00:19:57.516Z,16.12
2022-08-17T00:22:35.241Z,15.91
2022-08-17T00:25:12.929Z,16.34
2022-08-17T00:27:40.498Z,16.36
2022-08-17T00:30:09.416Z,16.22
2022-08-17T00:33:13.884Z,16.42
2022-08-17T00:35:34.464Z,15.85
2022-08-17T00:38:01.206Z,16.05
2022-08-17T00:40:44.283Z,16.12
2022-08-17T00:43:38.055Z,16.27
2022-08-17T00:46:26.792Z,16.23
2022-08-17T00:48:54.674Z,15.87
2022-08-17T00:51:42.665Z,16.14
2022-08-17T00:54:18.837Z,16.08
2022-08-17T00:56:56.829Z,15.78
2022-08-17T00:59:27.420Z,15.91
2022-08-17T01:01:54.340Z,15.50
2022-08-17T01:04:22.336Z,15.75
2022-08-17T01:06:49.744Z,15.55
2022-08-17T01:09:17.753Z,15.67
2022-08-17T01:11:46.279Z,15.58
2022-08-17T01:17:03.625Z,15.19
2022-08-17T01:19:33.844Z,15.71
2022-08-17T01:22:15.882Z,15.37
2022-08-17T01:24:47.012Z,15.20
2022-08-17T01:27:15.720Z,15.70
2022-08-17T01:29:49.775Z,15.26
2022-08-17T01:32:16.577Z,15.49
2022-08-17T01:34:50.113Z,15.15
2022-08-17T01:37:18.880Z,15.45
2022-08-17T01:40:08.364Z,15.57
2022-08-17T01:42:48.514Z,15.32
2022-08-17T01:45:24.973Z,15.23
2022-08-17T01:47:52.392Z,15.11
2022-08-17T01:50:34.597Z,15.36
2022-08-17T01:53:09.252Z,14.87
2022-08-17T01:55:45.622Z,14.89
2022-08-17T01:58:12.981Z,15.19
2022-08-17T02:00:47.842Z,14.94
2022-08-17T02:03:29.348Z,14.73
2022-08-17T02:05:56.223Z,14.85
2022-08-17T02:08:38.784Z,14.52
2022-08-17T02:11:13.102Z,14.73
2022-08-17T02:13:39.726Z,14.59
2022-08-17T02:16:06.443Z,14.64
2022-08-17T02:18:33.244Z,14.40
2022-08-17T02:21:00.051Z,14.49
2022-08-17T02:23:30.312Z,14.54
2022-08-17T02:25:59.445Z,14.38
2022-08-17T02:28:26.639Z,14.78
2022-08-17T02:31:01.640Z,14.55
2022-08-17T02:33:42.070Z,14.61
2022-08-17T02:36:11.682Z,14.59
2022-08-17T02:38:40.802Z,14.49
2022-08-17T02:41:08.278Z,14.24
2022-08-17T02:43:35.042Z,14.25
2022-08-17T02:46:01.693Z,14.25
2022-08-17T02:48:31.216Z,14.69
2022-08-17T02:50:59.645Z,14.57
2022-08-17T02:53:35.914Z,14.21
2022-08-17T02:56:03.820Z,14.26
2022-08-17T02:58:35.041Z,14.11
2022-08-17T03:01:06.455Z,14.39
2022-08-17T03:03:33.844Z,13.97
2022-08-17T03:06:01.699Z,14.35
2022-08-17T03:08:28.388Z,14.84
2022-08-17T03:10:55.105Z,14.56
2022-08-17T03:13:21.749Z,14.30
2022-08-17T03:15:49.226Z,14.68
2022-08-17T03:18:19.320Z,14.39
2022-08-17T03:20:55.940Z,14.55
2022-08-17T03:23:25.460Z,14.20
2022-08-17T03:25:53.741Z,13.78
2022-08-17T03:28:21.860Z,13.82
2022-08-17T03:30:49.380Z,13.78
2022-08-17T03:33:16.021Z,13.79
2022-08-17T03:35:42.990Z,14.12
2022-08-17T03:38:11.550Z,14.07
2022-08-17T03:40:56.970Z,13.60
2022-08-17T03:43:26.640Z,14.00
2022-08-17T03:45:53.218Z,13.68
2022-08-17T03:48:21.055Z,13.52
2022-08-17T03:50:47.641Z,13.82
2022-08-17T03:53:17.149Z,13.98
2022-08-17T03:55:43.719Z,13.51
2022-08-17T03:58:10.600Z,13.63
2022-08-17T04:00:39.826Z,13.57
2022-08-17T04:03:06.548Z,13.84
2022-08-17T04:05:35.935Z,13.41
2022-08-17T04:08:02.804Z,13.46
2022-08-17T04:10:33.915Z,14.03
2022-08-17T04:13:05.531Z,13.92
2022-08-17T04:15:32.177Z,13.34
2022-08-17T04:17:59.312Z,13.65
2022-08-17T04:20:25.976Z,13.40
2022-08-17T04:23:15.016Z,13.25
2022-08-17T04:25:47.769Z,13.53
2022-08-17T04:28:15.876Z,13.24
2022-08-17T04:30:44.867Z,13.45
2022-08-17T04:33:17.559Z,13.46
2022-08-17T04:35:46.370Z,13.83
2022-08-17T04:38:20.215Z,13.39
2022-08-17T04:40:47.496Z,13.45
2022-08-17T04:43:18.855Z,13.43
2022-08-17T04:45:51.528Z,13.85
2022-08-17T04:48:33.357Z,14.00
2022-08-17T04:51:04.038Z,13.55
2022-08-17T04:53:30.762Z,14.12
2022-08-17T04:55:57.468Z,14.00
2022-08-17T04:58:24.212Z,13.95
2022-08-17T05:00:50.992Z,13.93
2022-08-17T05:03:17.585Z,14.30
2022-08-17T05:05:44.343Z,14.89
2022-08-17T05:08:17.178Z,15.38
2022-08-17T05:10:45.481Z,14.95
2022-08-17T05:13:18.424Z,15.26
2022-08-17T05:15:47.887Z,14.97
2022-08-17T05:18:15.591Z,14.84
2022-08-17T05:20:42.653Z,15.21
2022-08-17T05:23:12.585Z,14.90
2022-08-17T05:25:48.683Z,15.80
2022-08-17T05:28:19.661Z,16.10
2022-08-17T05:30:51.257Z,15.74
2022-08-17T05:33:21.286Z,15.22
2022-08-17T05:35:49.754Z,14.84
2022-08-17T05:38:18.895Z,14.68
2022-08-17T05:40:46.474Z,15.67
2022-08-17T05:43:28.531Z,15.46
2022-08-17T05:45:56.408Z,16.04
2022-08-17T05:48:36.754Z,16.09
2022-08-17T05:51:12.591Z,16.23
2022-08-17T05:53:45.845Z,15.98
2022-08-17T05:56:34.639Z,16.20
2022-08-17T05:59:06.337Z,16.63
2022-08-17T06:01:59.437Z,16.77
2022-08-17T06:04:38.317Z,16.78
2022-08-17T06:07:17.072Z,16.48
2022-08-17T06:10:01.045Z,16.78
2022-08-17T06:12:30.678Z,17.18
2022-08-17T06:15:04.460Z,17.23
2022-08-17T06:17:32.029Z,17.00
2022-08-17T06:20:11.855Z,17.19
2022-08-17T06:22:46.212Z,17.73
2022-08-17T06:25:17.391Z,17.71
2022-08-17T06:27:53.603Z,18.05
2022-08-17T06:30:24.127Z,18.33
2022-08-17T06:32:51.456Z,18.52
2022-08-17T06:35:43.732Z,18.96
2022-08-17T06:38:38.977Z,18.92
2022-08-17T06:41:18.378Z,18.80
2022-08-17T06:44:05.359Z,18.77
2022-08-17T06:46:40.514Z,19.06
2022-08-17T06:49:20.781Z,19.97
2022-08-17T06:51:57.094Z,19.92
2022-08-17T06:54:38.453Z,20.13
2022-08-17T06:57:21.789Z,20.43
2022-08-17T07:00:02.336Z,20.63
2022-08-17T07:02:51.038Z,20.63
2022-08-17T07:05:25.478Z,20.34
2022-08-17T07:08:08.564Z,20.74
2022-08-17T07:10:46.851Z,20.44
2022-08-17T07:13:25.655Z,21.13
2022-08-17T07:15:57.325Z,21.42
2022-08-17T07:18:26.906Z,20.89
2022-08-17T07:21:00.179Z,21.13
2022-08-17T07:23:39.554Z,21.42
2022-08-17T07:26:08.003Z,21.23
2022-08-17T07:28:36.414Z,21.91
2022-08-17T07:31:04.633Z,22.37
2022-08-17T07:33:34.666Z,22.28
2022-08-17T07:36:01.272Z,22.16
2022-08-17T07:38:30.610Z,21.78
2022-08-17T07:40:57.191Z,22.35
2022-08-17T07:43:31.055Z,22.56
2022-08-17T07:46:11.434Z,22.35
2022-08-17T07:48:39.848Z,22.63
2022-08-17T07:51:24.415Z,22.74
2022-08-17T07:53:52.915Z,22.33
2022-08-17T07:56:38.509Z,22.88
2022-08-17T07:59:16.572Z,23.37
2022-08-17T08:01:59.156Z,23.61
2022-08-17T08:07:32.952Z,23.75
2022-08-17T08:10:13.565Z,24.16
2022-08-17T08:12:45.441Z,24.21
2022-08-17T08:15:19.248Z,24.53
2022-08-17T08:18:19.310Z,24.48
2022-08-17T08:21:11.762Z,23.39
2022-08-17T08:23:53.595Z,25.07
2022-08-17T08:26:39.268Z,25.32
2022-08-17T08:29:30.179Z,25.05
2022-08-17T08:32:52.758Z,25.28
2022-08-17T08:35:49.593Z,24.97
2022-08-17T08:38:39.556Z,25.35
2022-08-17T08:41:18.487Z,25.22
2022-08-17T08:44:14.394Z,25.24
2022-08-17T08:46:53.106Z,25.44
2022-08-17T08:50:02.716Z,25.48
2022-08-17T08:52:43.145Z,25.80
2022-08-17T08:55:29.363Z,26.44
2022-08-17T08:58:05.979Z,26.26
2022-08-17T09:00:38.322Z,26.04
2022-08-17T09:03:08.049Z,27.03
2022-08-17T09:06:28.700Z,27.36
2022-08-17T09:09:14.999Z,27.30
2022-08-17T09:12:05.282Z,27.60
2022-08-17T09:14:47.174Z,26.89
2022-08-17T09:17:24.821Z,27.07
2022-08-17T09:19:56.122Z,26.92
2022-08-17T09:22:31.003Z,27.59
2022-08-17T09:25:11.974Z,27.23
2022-08-17T09:28:01.103Z,27.90
2022-08-17T09:30:37.149Z,28.03
2022-08-17T09:33:09.001Z,28.03
2022-08-17T09:35:46.640Z,28.01
2022-08-17T09:38:23.288Z,28.34
2022-08-17T09:41:01.503Z,28.85
2022-08-17T09:44:00.909Z,29.00
2022-08-17T09:46:38.814Z,29.03
2022-08-17T09:49:21.872Z,29.21
2022-08-17T09:52:00.890Z,28.83
2022-08-17T09:54:39.934Z,29.18
2022-08-17T09:57:32.489Z,29.20
2022-08-17T10:00:05.364Z,29.25
2022-08-17T10:03:00.154Z,29.53
2022-08-17T10:05:46.334Z,29.20
2022-08-17T10:08:31.875Z,29.01
2022-08-17T10:11:19.850Z,28.88
2022-08-17T10:14:37.929Z,29.06
2022-08-17T10:17:04.430Z,28.68
2022-08-17T10:19:49.951Z,29.01
2022-08-17T10:22:37.955Z,28.90
2022-08-17T10:25:23.677Z,29.45
2022-08-17T10:27:58.314Z,29.77
2022-08-17T10:30:36.286Z,28.92
2022-08-17T10:33:06.622Z,29.45
2022-08-17T10:35:39.133Z,29.59
2022-08-17T10:38:05.751Z,29.15
2022-08-17T10:40:45.245Z,29.41
2022-08-17T10:43:37.797Z,29.33
2022-08-17T10:46:10.624Z,29.18
2022-08-17T10:49:19.049Z,29.68
2022-08-17T10:51:48.988Z,30.15
2022-08-17T10:54:24.703Z,30.33
2022-08-17T10:56:56.484Z,29.93
2022-08-17T10:59:35.508Z,29.85
2022-08-17T11:02:21.535Z,28.88
2022-08-17T11:05:00.467Z,29.11
2022-08-17T11:07:45.815Z,28.47
2022-08-17T11:10:31.097Z,28.24
2022-08-17T11:13:22.300Z,28.49
2022-08-17T11:15:58.770Z,28.38
2022-08-17T11:18:26.200Z,28.55
2022-08-17T11:21:29.577Z,28.80
2022-08-17T11:24:20.549Z,28.75
2022-08-17T11:27:12.375Z,28.88
2022-08-17T11:30:02.936Z,28.99
2022-08-17T11:32:54.676Z,29.01
2022-08-17T11:35:22.016Z,29.18
2022-08-17T11:38:16.032Z,29.16
2022-08-17T11:40:52.882Z,28.20
2022-08-17T11:43:42.944Z,29.67
2022-08-17T11:46:18.867Z,29.61
2022-08-17T11:49:08.558Z,29.29
2022-08-17T11:52:00.195Z,30.04
2022-08-17T11:54:33.819Z,29.85
2022-08-17T11:57:26.779Z,29.61
2022-08-17T12:00:06.728Z,29.29
2022-08-17T12:02:37.289Z,29.20
2022-08-17T12:05:25.003Z,29.41
2022-08-17T12:08:04.040Z,29.66
2022-08-17T12:10:35.027Z,29.66
2022-08-17T12:13:14.490Z,28.29
2022-08-17T12:15:46.936Z,29.51
2022-08-17T12:18:33.159Z,28.91
2022-08-17T12:21:27.862Z,29.20
2022-08-17T12:24:09.657Z,28.72
2022-08-17T12:26:36.939Z,29.26
2022-08-17T12:29:18.477Z,29.88
2022-08-17T12:31:58.932Z,30.44
2022-08-17T12:34:36.308Z,29.57
2022-08-17T12:37:07.764Z,30.03
2022-08-17T12:39:34.710Z,29.77
2022-08-17T12:42:02.754Z,30.02
2022-08-17T12:44:33.472Z,29.86
2022-08-17T12:47:16.860Z,30.38
2022-08-17T12:49:50.752Z,30.49
2022-08-17T12:52:26.571Z,30.76
2022-08-17T12:55:03.887Z,30.76
2022-08-17T12:57:39.908Z,30.80
2022-08-17T13:00:18.161Z,30.33
2022-08-17T13:02:44.812Z,30.35
2022-08-17T13:05:32.348Z,30.33
2022-08-17T13:08:00.016Z,29.43
2022-08-17T13:10:32.468Z,29.86
2022-08-17T13:13:02.090Z,29.98
2022-08-17T13:15:32.761Z,29.49
2022-08-17T13:18:07.933Z,29.85
2022-08-17T13:20:35.398Z,30.24
2022-08-17T13:23:11.483Z,29.44
2022-08-17T13:25:39.404Z,28.97
2022-08-17T13:28:06.040Z,28.31
2022-08-17T13:30:32.712Z,28.22
2022-08-17T13:33:04.741Z,28.06
2022-08-17T13:35:39.259Z,28.39
2022-08-17T13:38:12.230Z,28.54
2022-08-17T13:40:42.998Z,28.36
2022-08-17T13:43:10.515Z,27.95
2022-08-17T13:45:44.823Z,27.74
2022-08-17T13:48:25.379Z,27.90
2022-08-17T13:50:51.993Z,27.90
2022-08-17T13:53:24.111Z,27.90
2022-08-17T13:55:54.992Z,27.34
2022-08-17T13:58:29.486Z,27.58
2022-08-17T14:00:56.551Z,27.33
2022-08-17T14:03:24.175Z,27.30
2022-08-17T14:05:52.695Z,27.43
2022-08-17T14:08:20.517Z,27.66
2022-08-17T14:10:56.888Z,27.04
2022-08-17T14:13:23.815Z,27.11
2022-08-17T14:15:54.462Z,27.27
2022-08-17T14:18:50.648Z,26.47
2022-08-17T14:21:10.465Z,26.89
2022-08-17T14:23:37.649Z,26.38
2022-08-17T14:26:05.155Z,26.28
2022-08-17T14:28:32.161Z,26.23
2022-08-17T14:31:00.688Z,26.79
2022-08-17T14:33:28.435Z,25.28
2022-08-17T14:35:55.211Z,25.41
2022-08-17T14:38:21.773Z,25.99
2022-08-17T14:40:48.996Z,26.09
2022-08-17T14:43:15.710Z,26.21
2022-08-17T14:45:43.323Z,26.75
2022-08-17T14:48:10.647Z,26.15
2022-08-17T14:50:40.669Z,26.70
2022-08-17T14:53:10.121Z,26.76
2022-08-17T14:55:37.633Z,26.48
2022-08-17T14:58:04.287Z,25.82
2022-08-17T15:00:31.242Z,26.43
2022-08-17T15:03:00.501Z,26.12
2022-08-17T15:05:31.912Z,25.99
2022-08-17T15:08:01.250Z,26.54
2022-08-17T15:10:29.354Z,26.30
2022-08-17T15:12:56.536Z,25.61
2022-08-17T15:15:24.082Z,25.73
2022-08-17T15:17:51.416Z,25.25
2022-08-17T15:20:25.852Z,24.98
2022-08-17T15:22:52.646Z,24.81
2022-08-17T15:25:19.655Z,25.34
2022-08-17T15:27:46.538Z,25.62
2022-08-17T15:30:13.436Z,25.24
2022-08-17T15:32:50.895Z,26.18
2022-08-17T15:35:27.271Z,23.60
2022-08-17T15:37:56.974Z,25.58
2022-08-17T15:40:23.624Z,25.20
2022-08-17T15:42:50.271Z,25.09
2022-08-17T15:45:22.624Z,25.01
2022-08-17T15:47:49.569Z,25.27
2022-08-17T15:50:16.404Z,25.39
2022-08-17T15:52:43.161Z,25.54
2022-08-17T15:55:12.482Z,25.81
2022-08-17T15:57:40.289Z,25.37
2022-08-17T16:00:09.110Z,25.95
2022-08-17T16:03:45.668Z,24.64
2022-08-17T16:05:27.501Z,25.68
2022-08-17T16:07:55.939Z,25.74
2022-08-17T16:10:23.397Z,26.08
2022-08-17T16:13:01.578Z,25.18
2022-08-17T16:15:28.144Z,25.55
2022-08-17T16:17:55.133Z,25.38
2022-08-17T16:20:21.964Z,25.62
2022-08-17T16:22:50.177Z,25.47
2022-08-17T16:25:23.452Z,25.59
2022-08-17T16:28:10.175Z,24.98
2022-08-17T16:30:36.978Z,26.26
2022-08-17T16:33:04.069Z,26.35
2022-08-17T16:35:30.638Z,26.00
2022-08-17T16:37:58.450Z,26.34
2022-08-17T16:40:28.993Z,26.03
2022-08-17T16:42:59.195Z,25.26
2022-08-17T16:45:28.657Z,26.33
2022-08-17T16:47:55.721Z,26.02
2022-08-17T16:50:25.257Z,26.11
2022-08-17T16:52:53.056Z,26.34
2022-08-17T16:55:23.030Z,26.57
2022-08-17T16:57:57.844Z,26.73
2022-08-17T17:00:47.449Z,26.29
2022-08-17T17:03:20.770Z,26.04
2022-08-17T17:06:12.278Z,26.81
2022-08-17T17:08:55.933Z,26.96
2022-08-17T17:11:47.959Z,27.09
2022-08-17T17:14:20.403Z,26.72
2022-08-17T17:17:12.840Z,27.23
2022-08-17T17:19:48.693Z,26.72
2022-08-17T17:22:20.192Z,26.70
2022-08-17T17:25:13.767Z,26.91
2022-08-17T17:28:06.931Z,27.28
2022-08-17T17:30:49.868Z,27.28
2022-08-17T17:33:25.484Z,26.78
2022-08-17T17:35:59.982Z,25.74
2022-08-17T17:39:23.215Z,26.64
2022-08-17T17:41:57.222Z,26.26
2022-08-17T17:44:32.920Z,25.56
2022-08-17T17:47:02.824Z,26.02
2022-08-17T17:49:45.304Z,26.51
2022-08-17T17:52:25.869Z,26.18
2022-08-17T17:55:01.602Z,26.54
2022-08-17T17:57:52.794Z,26.59
2022-08-17T18:00:25.145Z,26.42
2022-08-17T18:03:13.240Z,26.37
2022-08-17T18:05:52.101Z,26.33
2022-08-17T18:08:58.108Z,26.03
2022-08-17T18:11:35.178Z,26.16
2022-08-17T18:14:22.595Z,26.03
2022-08-17T18:16:55.942Z,25.76
2022-08-17T18:19:31.544Z,25.41
2022-08-17T18:22:14.095Z,24.62
2022-08-17T18:24:45.089Z,25.25
2022-08-17T18:27:20.047Z,24.92
2022-08-17T18:29:48.519Z,24.99
2022-08-17T18:32:24.150Z,24.72
2022-08-17T18:35:23.502Z,24.45
2022-08-17T18:37:55.091Z,24.48
2022-08-17T18:40:32.342Z,24.17
2022-08-17T18:43:07.626Z,24.36
2022-08-17T18:45:42.941Z,24.03
2022-08-17T18:48:24.864Z,23.95
2022-08-17T18:50:54.163Z,23.75
2022-08-17T18:53:42.794Z,23.49
2022-08-17T18:56:30.659Z,23.65
2022-08-17T18:59:10.985Z,22.84
2022-08-17T19:02:11.797Z,23.08
2022-08-17T19:05:10.248Z,22.89
2022-08-17T19:07:42.029Z,22.79
2022-08-17T19:10:46.216Z,22.77
2022-08-17T19:13:37.412Z,22.29
2022-08-17T19:16:14.300Z,22.13
2022-08-17T19:19:14.294Z,22.31
2022-08-17T19:22:21.378Z,19.35
2022-08-17T19:25:16.158Z,21.92
2022-08-17T19:27:57.323Z,21.77
2022-08-17T19:30:25.428Z,21.64
2022-08-17T19:32:52.205Z,21.47
2022-08-17T19:35:20.925Z,21.22
2022-08-17T19:38:06.168Z,21.66
2022-08-17T19:40:55.904Z,21.66
2022-08-17T19:43:28.090Z,21.65
2022-08-17T19:46:03.467Z,21.03
2022-08-17T19:48:48.951Z,21.47
2022-08-17T19:51:30.348Z,21.06
2022-08-17T19:54:35.143Z,21.13
2022-08-17T19:57:10.307Z,20.94
2022-08-17T19:59:58.513Z,20.96
2022-08-17T20:02:57.636Z,21.16
2022-08-17T20:05:28.966Z,21.09
2022-08-17T20:08:06.797Z,21.01
2022-08-17T20:10:37.929Z,20.51
2022-08-17T20:13:10.430Z,20.44
2022-08-17T20:15:41.377Z,20.57
2022-08-17T20:18:34.589Z,20.69
2022-08-17T20:21:11.207Z,20.13
2022-08-17T20:24:23.256Z,20.82
2022-08-17T20:26:59.662Z,20.67
2022-08-17T20:29:37.555Z,20.87
2022-08-17T20:32:16.894Z,20.34
2022-08-17T20:34:47.232Z,20.28
2022-08-17T20:37:13.807Z,20.50
2022-08-17T20:40:05.980Z,20.41
2022-08-17T20:42:33.758Z,19.58
2022-08-17T20:45:21.519Z,19.69
2022-08-17T20:48:15.982Z,20.16
2022-08-17T20:50:44.175Z,19.37
2022-08-17T20:53:15.795Z,19.81
2022-08-17T20:55:51.341Z,20.25
2022-08-17T20:58:29.853Z,20.26
2022-08-17T21:00:57.679Z,19.92
2022-08-17T21:03:24.402Z,19.75
2022-08-17T21:05:59.917Z,19.55
2022-08-17T21:08:30.836Z,19.40
2022-08-17T21:10:59.101Z,18.90
2022-08-17T21:13:56.331Z,18.95
2022-08-17T21:16:41.435Z,19.30
2022-08-17T21:19:25.466Z,19.30
2022-08-17T21:22:02.761Z,18.66
2022-08-17T21:24:52.818Z,19.01
2022-08-17T21:27:19.470Z,19.17
2022-08-17T21:30:09.965Z,19.17
2022-08-17T21:32:42.031Z,18.84
2022-08-17T21:35:23.292Z,18.97
2022-08-17T21:37:54.012Z,18.35
2022-08-17T21:40:28.101Z,18.61
2022-08-17T21:42:59.903Z,18.20
2022-08-17T21:45:31.729Z,18.36
2022-08-17T21:48:20.280Z,18.69
2022-08-17T21:50:59.490Z,18.73
2022-08-17T21:53:35.955Z,18.35
2022-08-17T21:56:03.040Z,18.65
2022-08-17T21:58:33.592Z,18.29
2022-08-17T22:01:42.386Z,18.60
2022-08-17T22:04:11.890Z,18.47
2022-08-17T22:06:40.470Z,17.68
2022-08-17T22:09:13.014Z,17.41
2022-08-17T22:11:53.804Z,18.52
2022-08-17T22:14:54.153Z,18.56
2022-08-17T22:17:44.068Z,18.40
2022-08-17T22:20:14.978Z,17.63
2022-08-17T22:23:01.531Z,18.15
2022-08-17T22:25:28.582Z,17.88
2022-08-17T22:27:58.736Z,18.02
2022-08-17T22:30:39.267Z,18.08
2022-08-17T22:33:29.050Z,17.80
2022-08-17T22:36:32.437Z,18.03
2022-08-17T22:39:08.674Z,17.86
2022-08-17T22:41:47.477Z,17.67
2022-08-17T22:44:17.097Z,17.53
2022-08-17T22:46:58.934Z,17.33
2022-08-17T22:49:33.194Z,17.28
2022-08-17T22:52:06.438Z,17.05
2022-08-17T22:54:33.398Z,17.19
2022-08-17T22:57:03.395Z,16.85
2022-08-17T22:59:44.266Z,17.38
2022-08-17T23:02:13.417Z,17.01
2022-08-17T23:04:46.970Z,17.08
2022-08-17T23:07:14.894Z,16.83
2022-08-17T23:09:41.475Z,16.62
2022-08-17T23:12:13.223Z,16.65
2022-08-17T23:14:41.441Z,16.84
2022-08-17T23:17:08.529Z,16.91
2022-08-17T23:19:36.857Z,16.99
2022-08-17T23:22:08.729Z,16.63
2022-08-17T23:24:41.769Z,16.97
2022-08-17T23:27:08.427Z,16.57
2022-08-17T23:29:35.528Z,16.15
2022-08-17T23:32:02.288Z,16.61
2022-08-17T23:34:31.213Z,16.50
2022-08-17T23:36:58.380Z,16.61
2022-08-17T23:39:27.565Z,16.31
2022-08-17T23:41:57.821Z,16.62
2022-08-17T23:44:25.506Z,16.92
2022-08-17T23:46:53.428Z,17.00
2022-08-17T23:49:20.560Z,17.03
2022-08-17T23:51:48.635Z,17.00
2022-08-17T23:54:34.021Z,16.98
2022-08-17T23:57:02.534Z,16.54
2022-08-17T23:59:29.251Z,16.62
